Time,TemperatureF,DewpointF,PressureIn,WindDirection,WindDirectionDegrees,WindSpeedMPH,WindSpeedGustMPH,Humidity,HourlyPrecipIn,Conditions,Clouds,dailyrainin,SoftwareType,DateUTC
2013-01-27 00:00:00,13.9,-0.3,30.17,WNW,289,3.2,13.6,52,0.00,n/a,n/a,-99.99,Henriksen +1-Wire,2013-01-27 05:00:00,
2013-01-27 00:04:00,13.9,-0.3,30.17,WSW,257,2.1,5.8,53,0.00,n/a,n/a,-99.99,Henriksen +1-Wire,2013-01-27 05:04:00,
2013-01-27 00:10:00,13.9,0.0,30.17,WSW,249,3.5,6.6,53,0.00,n/a,n/a,-99.99,Henriksen +1-Wire,2013-01-27 05:10:00,
2013-01-27 00:16:00,14.8,1.3,30.16,SW,222,4.2,9.1,54,0.00,n/a,n/a,-99.99,Henriksen +1-Wire,2013-01-27 05:16:00,
2013-01-27 00:18:00,14.8,1.5,30.16,SSW,209,3.1,9.1,55,0.00,n/a,n/a,-99.99,Henriksen +1-Wire,2013-01-27 05:18:00,
2013-01-27 00:20:00,14.9,1.5,30.16,SSW,207,4.5,9.9,55,0.00,n/a,n/a,-99.99,Henriksen +1-Wire,2013-01-27 05:20:00,
2013-01-27 00:26:00,14.3,0.7,30.16,WNW,289,2.5,11.5,54,0.00,n/a,n/a,-99.99,Henriksen +1-Wire,2013-01-27 05:26:00,
2013-01-27 00:32:00,14.4,0.6,30.17,WSW,251,2.5,10.5,54,0.00,n/a,n/a,-99.99,Henriksen +1-Wire,2013-01-27 05:32:00,
2013-01-27 00:38:00,14.8,1.2,30.17,NW,323,2.3,5.7,54,0.00,n/a,n/a,-99.99,Henriksen +1-Wire,2013-01-27 05:38:00,
2013-01-27 00:44:00,15.0,1.6,30.17,WSW,241,2.5,4.5,55,0.00,n/a,n/a,-99.99,Henriksen +1-Wire,2013-01-27 05:44:00,
2013-01-27 00:50:00,15.1,1.8,30.17,WSW,243,2.9,5.8,55,0.00,n/a,n/a,-99.99,Henriksen +1-Wire,2013-01-27 05:50:00,
2013-01-27 00:56:00,14.8,1.9,30.18,SW,219,1.1,5.8,56,0.00,n/a,n/a,-99.99,Henriksen +1-Wire,2013-01-27 05:56:00,
2013-01-27 01:02:00,14.8,1.9,30.18,NNE,18,0.9,3.9,56,0.00,n/a,n/a,-99.99,Henriksen +1-Wire,2013-01-27 06:02:00,
2013-01-27 01:08:00,14.1,1.2,30.18,WNW,282,1.8,5.1,56,0.00,n/a,n/a,-99.99,Henriksen +1-Wire,2013-01-27 06:08:00,
2013-01-27 01:14:00,13.1,0.8,30.18,WSW,258,1.4,5.1,57,0.00,n/a,n/a,-99.99,Henriksen +1-Wire,2013-01-27 06:14:00,
2013-01-27 01:20:00,12.8,0.8,30.19,WSW,250,1.0,2.9,58,0.00,n/a,n/a,-99.99,Henriksen +1-Wire,2013-01-27 06:20:00,
2013-01-27 01:26:00,12.6,0.7,30.19,WSW,244,1.7,3.5,58,0.00,n/a,n/a,-99.99,Henriksen +1-Wire,2013-01-27 06:26:00,
2013-01-27 01:32:00,13.4,1.6,30.19,WSW,246,2.2,4.9,59,0.00,n/a,n/a,-99.99,Henriksen +1-Wire,2013-01-27 06:32:00,
2013-01-27 01:38:00,14.5,2.3,30.19,WSW,250,2.2,6.0,58,0.00,n/a,n/a,-99.99,Henriksen +1-Wire,2013-01-27 06:38:00,
2013-01-27 01:44:00,14.8,2.5,30.20,NE,52,2.0,4.5,57,0.00,n/a,n/a,-99.99,Henriksen +1-Wire,2013-01-27 06:44:00,
2013-01-27 01:50:00,14.7,2.7,30.20,WSW,240,1.5,7.0,58,0.00,n/a,n/a,-99.99,Henriksen +1-Wire,2013-01-27 06:50:00,
2013-01-27 01:56:00,14.7,2.8,30.20,SSW,209,2.8,7.0,59,0.00,n/a,n/a,-99.99,Henriksen +1-Wire,2013-01-27 06:56:00,
2013-01-27 02:02:00,14.7,2.9,30.20,SW,236,2.7,8.3,59,0.00,n/a,n/a,-99.99,Henriksen +1-Wire,2013-01-27 07:02:00,
2013-01-27 02:08:00,14.7,2.8,30.21,WSW,238,1.9,8.3,58,0.00,n/a,n/a,-99.99,Henriksen +1-Wire,2013-01-27 07:08:00,
2013-01-27 02:14:00,13.6,2.0,30.21,SSW,204,2.0,3.9,59,0.00,n/a,n/a,-99.99,Henriksen +1-Wire,2013-01-27 07:14:00,
2013-01-27 02:20:00,13.3,2.1,30.21,SSW,206,1.6,4.1,60,0.00,n/a,n/a,-99.99,Henriksen +1-Wire,2013-01-27 07:20:00,
2013-01-27 02:26:00,13.2,2.0,30.20,WSW,241,1.5,3.5,60,0.00,n/a,n/a,-99.99,Henriksen +1-Wire,2013-01-27 07:26:00,
2013-01-27 02:32:00,13.0,2.0,30.21,SW,217,1.7,4.5,61,0.00,n/a,n/a,-99.99,Henriksen +1-Wire,2013-01-27 07:32:00,
2013-01-27 02:38:00,13.0,2.0,30.21,WSW,237,1.6,6.0,61,0.00,n/a,n/a,-99.99,Henriksen +1-Wire,2013-01-27 07:38:00,
2013-01-27 02:44:00,13.2,2.3,30.21,SSW,213,1.4,5.5,61,0.00,n/a,n/a,-99.99,Henriksen +1-Wire,2013-01-27 07:44:00,
2013-01-27 02:50:00,12.9,2.0,30.21,WSW,237,1.3,4.7,61,0.00,n/a,n/a,-99.99,Henriksen +1-Wire,2013-01-27 07:50:00,
2013-01-27 02:56:00,12.9,2.2,30.21,WNW,285,2.3,6.2,61,0.00,n/a,n/a,-99.99,Henriksen +1-Wire,2013-01-27 07:56:00,
2013-01-27 03:02:00,14.3,3.3,30.21,WSW,242,2.6,6.2,61,0.00,n/a,n/a,-99.99,Henriksen +1-Wire,2013-01-27 08:02:00,
2013-01-27 03:08:00,14.7,3.6,30.21,WSW,254,3.9,7.4,61,0.00,n/a,n/a,-99.99,Henriksen +1-Wire,2013-01-27 08:08:00,
2013-01-27 03:14:00,14.8,3.6,30.21,WSW,247,2.2,7.4,61,0.00,n/a,n/a,-99.99,Henriksen +1-Wire,2013-01-27 08:14:00,
2013-01-27 03:20:00,14.2,3.3,30.21,WSW,249,2.1,4.9,61,0.00,n/a,n/a,-99.99,Henriksen +1-Wire,2013-01-27 08:20:00,
2013-01-27 03:26:00,13.9,3.1,30.21,WSW,247,1.5,6.9,61,0.00,n/a,n/a,-99.99,Henriksen +1-Wire,2013-01-27 08:26:00,
2013-01-27 03:32:00,13.9,3.2,30.21,NW,319,1.5,3.3,62,0.00,n/a,n/a,-99.99,Henriksen +1-Wire,2013-01-27 08:32:00,
2013-01-27 03:38:00,14.0,3.3,30.22,WSW,256,3.2,6.1,62,0.00,n/a,n/a,-99.99,Henriksen +1-Wire,2013-01-27 08:38:00,
2013-01-27 03:44:00,13.8,3.1,30.21,WSW,238,2.9,6.1,62,0.00,n/a,n/a,-99.99,Henriksen +1-Wire,2013-01-27 08:44:00,
2013-01-27 03:50:00,14.4,3.7,30.22,WSW,249,1.7,6.0,62,0.00,n/a,n/a,-99.99,Henriksen +1-Wire,2013-01-27 08:50:00,
2013-01-27 03:56:00,14.0,3.4,30.22,SSE,157,1.5,5.8,62,0.00,n/a,n/a,-99.99,Henriksen +1-Wire,2013-01-27 08:56:00,
2013-01-27 04:02:00,14.6,3.8,30.22,WNW,285,1.1,3.4,62,0.00,n/a,n/a,-99.99,Henriksen +1-Wire,2013-01-27 09:02:00,
2013-01-27 04:08:00,14.4,3.7,30.22,WSW,253,2.5,5.3,62,0.00,n/a,n/a,-99.99,Henriksen +1-Wire,2013-01-27 09:08:00,
2013-01-27 04:14:00,14.6,3.8,30.22,WSW,237,1.9,6.6,62,0.00,n/a,n/a,-99.99,Henriksen +1-Wire,2013-01-27 09:14:00,
2013-01-27 04:20:00,13.6,3.1,30.22,SW,236,1.9,7.4,62,0.00,n/a,n/a,-99.99,Henriksen +1-Wire,2013-01-27 09:20:00,
2013-01-27 04:26:00,14.0,3.5,30.22,SSW,206,4.2,8.5,62,0.00,n/a,n/a,-99.99,Henriksen +1-Wire,2013-01-27 09:26:00,
2013-01-27 04:32:00,13.4,3.0,30.22,SSW,209,2.4,8.5,63,0.00,n/a,n/a,-99.99,Henriksen +1-Wire,2013-01-27 09:32:00,
2013-01-27 04:38:00,12.9,2.7,30.23,SSW,205,2.5,5.1,63,0.00,n/a,n/a,-99.99,Henriksen +1-Wire,2013-01-27 09:38:00,
2013-01-27 04:44:00,13.9,3.6,30.23,SW,228,3.5,5.1,63,0.00,n/a,n/a,-99.99,Henriksen +1-Wire,2013-01-27 09:44:00,
2013-01-27 04:50:00,13.6,3.3,30.23,SW,232,2.1,8.4,63,0.00,n/a,n/a,-99.99,Henriksen +1-Wire,2013-01-27 09:50:00,
2013-01-27 04:56:00,13.8,3.5,30.24,WSW,239,1.7,7.9,63,0.00,n/a,n/a,-99.99,Henriksen +1-Wire,2013-01-27 09:56:00,
2013-01-27 05:02:00,13.7,3.4,30.24,WSW,252,2.0,3.9,63,0.00,n/a,n/a,-99.99,Henriksen +1-Wire,2013-01-27 10:02:00,
2013-01-27 05:08:00,13.7,3.3,30.24,SW,234,2.1,3.6,62,0.00,n/a,n/a,-99.99,Henriksen +1-Wire,2013-01-27 10:08:00,
2013-01-27 05:14:00,12.5,2.4,30.24,SSW,208,2.7,4.2,63,0.00,n/a,n/a,-99.99,Henriksen +1-Wire,2013-01-27 10:14:00,
2013-01-27 05:20:00,12.3,2.3,30.24,SW,228,1.5,4.2,64,0.00,n/a,n/a,-99.99,Henriksen +1-Wire,2013-01-27 10:20:00,
2013-01-27 05:26:00,12.2,2.2,30.24,WSW,255,1.8,4.2,63,0.00,n/a,n/a,-99.99,Henriksen +1-Wire,2013-01-27 10:26:00,
2013-01-27 05:32:00,12.7,2.5,30.24,SSW,206,0.8,4.2,63,0.00,n/a,n/a,-99.99,Henriksen +1-Wire,2013-01-27 10:32:00,
2013-01-27 05:38:00,12.3,2.3,30.24,SSW,202,2.9,5.6,64,0.00,n/a,n/a,-99.99,Henriksen +1-Wire,2013-01-27 10:38:00,
2013-01-27 05:44:00,12.3,2.5,30.24,SSE,168,1.2,5.6,64,0.00,n/a,n/a,-99.99,Henriksen +1-Wire,2013-01-27 10:44:00,
2013-01-27 05:50:00,12.2,2.2,30.25,SSW,204,3.3,5.4,64,0.00,n/a,n/a,-99.99,Henriksen +1-Wire,2013-01-27 10:50:00,
2013-01-27 05:56:00,12.2,2.4,30.25,SSW,206,2.2,5.4,64,0.00,n/a,n/a,-99.99,Henriksen +1-Wire,2013-01-27 10:56:00,
2013-01-27 06:02:00,12.3,2.3,30.25,SSE,163,1.7,3.5,63,0.00,n/a,n/a,-99.99,Henriksen +1-Wire,2013-01-27 11:02:00,
2013-01-27 06:08:00,12.3,2.0,30.25,SSE,161,1.4,3.5,63,0.00,n/a,n/a,-99.99,Henriksen +1-Wire,2013-01-27 11:08:00,
2013-01-27 06:14:00,12.2,2.1,30.25,SSW,210,1.4,3.9,63,0.00,n/a,n/a,-99.99,Henriksen +1-Wire,2013-01-27 11:14:00,
2013-01-27 06:20:00,12.2,2.0,30.26,SSW,202,1.5,3.5,63,0.00,n/a,n/a,-99.99,Henriksen +1-Wire,2013-01-27 11:20:00,
2013-01-27 06:26:00,12.3,1.9,30.26,SSW,196,0.0,3.2,63,0.00,n/a,n/a,-99.99,Henriksen +1-Wire,2013-01-27 11:26:00,
2013-01-27 06:32:00,12.2,2.0,30.26,SW,221,1.3,3.2,63,0.00,n/a,n/a,-99.99,Henriksen +1-Wire,2013-01-27 11:32:00,
2013-01-27 06:38:00,12.5,2.3,30.27,SSW,198,2.1,4.5,63,0.00,n/a,n/a,-99.99,Henriksen +1-Wire,2013-01-27 11:38:00,
2013-01-27 06:44:00,12.2,2.1,30.27,SSE,154,0.9,5.3,63,0.00,n/a,n/a,-99.99,Henriksen +1-Wire,2013-01-27 11:44:00,
2013-01-27 06:50:00,12.4,2.1,30.28,WNW,301,1.9,5.3,62,0.00,n/a,n/a,-99.99,Henriksen +1-Wire,2013-01-27 11:50:00,
2013-01-27 06:56:00,12.5,2.0,30.27,WNW,290,0.9,4.5,62,0.00,n/a,n/a,-99.99,Henriksen +1-Wire,2013-01-27 11:56:00,
2013-01-27 07:02:00,12.4,1.9,30.28,WNW,303,1.2,3.1,62,0.00,n/a,n/a,-99.99,Henriksen +1-Wire,2013-01-27 12:02:00,
2013-01-27 07:08:00,12.2,1.9,30.28,WNW,289,1.3,3.1,63,0.00,n/a,n/a,-99.99,Henriksen +1-Wire,2013-01-27 12:08:00,
2013-01-27 07:14:00,12.1,1.9,30.28,NNW,337,1.0,2.6,63,0.00,n/a,n/a,-99.99,Henriksen +1-Wire,2013-01-27 12:14:00,
2013-01-27 07:20:00,12.1,1.9,30.28,WNW,300,0.5,5.5,63,0.00,n/a,n/a,-99.99,Henriksen +1-Wire,2013-01-27 12:20:00,
2013-01-27 07:26:00,12.2,2.0,30.28,WNW,284,2.0,6.1,63,0.00,n/a,n/a,-99.99,Henriksen +1-Wire,2013-01-27 12:26:00,
2013-01-27 07:32:00,12.4,2.0,30.28,SSW,202,1.9,6.1,62,0.00,n/a,n/a,-99.99,Henriksen +1-Wire,2013-01-27 12:32:00,
2013-01-27 07:38:00,13.3,2.8,30.28,WSW,240,2.6,4.8,62,0.00,n/a,n/a,-99.99,Henriksen +1-Wire,2013-01-27 12:38:00,
2013-01-27 07:44:00,14.6,3.6,30.29,WNW,287,3.3,6.7,61,0.00,n/a,n/a,-99.99,Henriksen +1-Wire,2013-01-27 12:44:00,
2013-01-27 07:50:00,14.3,2.9,30.29,WNW,289,2.9,6.8,60,0.00,n/a,n/a,-99.99,Henriksen +1-Wire,2013-01-27 12:50:00,
2013-01-27 07:56:00,14.0,2.3,30.29,WSW,254,3.9,12.1,59,0.00,n/a,n/a,-99.99,Henriksen +1-Wire,2013-01-27 12:56:00,
2013-01-27 08:02:00,14.0,2.0,30.29,West,268,2.2,12.1,58,0.00,n/a,n/a,-99.99,Henriksen +1-Wire,2013-01-27 13:02:00,
2013-01-27 08:08:00,14.9,2.4,30.30,West,276,5.3,9.0,57,0.00,n/a,n/a,-99.99,Henriksen +1-Wire,2013-01-27 13:08:00,
2013-01-27 08:14:00,16.1,3.1,30.30,WNW,290,2.9,11.5,56,0.00,n/a,n/a,-99.99,Henriksen +1-Wire,2013-01-27 13:14:00,
2013-01-27 08:20:00,16.6,3.5,30.30,WSW,254,2.5,11.5,56,0.00,n/a,n/a,-99.99,Henriksen +1-Wire,2013-01-27 13:20:00,
2013-01-27 08:26:00,16.8,3.2,30.30,WSW,256,5.1,9.2,54,0.00,n/a,n/a,-99.99,Henriksen +1-Wire,2013-01-27 13:26:00,
2013-01-27 08:32:00,16.9,3.0,30.31,WNW,291,4.2,9.5,54,0.00,n/a,n/a,-99.99,Henriksen +1-Wire,2013-01-27 13:32:00,
2013-01-27 08:38:00,16.0,1.8,30.31,WNW,298,4.8,9.7,53,0.00,n/a,n/a,-99.99,Henriksen +1-Wire,2013-01-27 13:38:00,
2013-01-27 08:44:00,15.8,1.2,30.31,WNW,302,4.1,9.7,52,0.00,n/a,n/a,-99.99,Henriksen +1-Wire,2013-01-27 13:44:00,
2013-01-27 08:50:00,16.1,1.5,30.31,NW,310,3.0,10.5,52,0.00,n/a,n/a,-99.99,Henriksen +1-Wire,2013-01-27 13:50:00,
2013-01-27 08:56:00,17.7,2.5,30.31,WNW,299,2.1,10.5,51,0.00,n/a,n/a,-99.99,Henriksen +1-Wire,2013-01-27 13:56:00,
2013-01-27 09:02:00,18.2,2.4,30.31,WSW,253,4.7,11.0,49,0.00,n/a,n/a,-99.99,Henriksen +1-Wire,2013-01-27 14:02:00,
2013-01-27 09:08:00,18.4,2.3,30.31,WSW,253,5.3,12.2,49,0.00,n/a,n/a,-99.99,Henriksen +1-Wire,2013-01-27 14:08:00,
2013-01-27 09:14:00,18.6,2.1,30.31,WNW,290,5.0,11.7,48,0.00,n/a,n/a,-99.99,Henriksen +1-Wire,2013-01-27 14:14:00,
2013-01-27 09:20:00,18.5,1.8,30.31,WNW,290,6.2,13.3,48,0.00,n/a,n/a,-99.99,Henriksen +1-Wire,2013-01-27 14:20:00,
2013-01-27 09:26:00,18.2,1.1,30.32,WNW,295,6.5,13.5,46,0.00,n/a,n/a,-99.99,Henriksen +1-Wire,2013-01-27 14:26:00,
2013-01-27 09:32:00,18.0,0.4,30.32,WNW,294,8.9,15.5,45,0.00,n/a,n/a,-99.99,Henriksen +1-Wire,2013-01-27 14:32:00,
2013-01-27 09:38:00,17.7,0.2,30.32,WNW,293,7.5,15.5,46,0.00,n/a,n/a,-99.99,Henriksen +1-Wire,2013-01-27 14:38:00,
2013-01-27 09:44:00,18.2,0.0,30.33,WNW,294,7.4,14.1,44,0.00,n/a,n/a,-99.99,Henriksen +1-Wire,2013-01-27 14:44:00,
2013-01-27 09:50:00,19.6,0.7,30.32,WNW,289,4.5,14.1,43,0.00,n/a,n/a,-99.99,Henriksen +1-Wire,2013-01-27 14:50:00,
2013-01-27 09:56:00,20.2,0.9,30.33,WNW,294,6.3,13.5,42,0.00,n/a,n/a,-99.99,Henriksen +1-Wire,2013-01-27 14:56:00,
2013-01-27 10:02:00,20.1,-0.2,30.33,NW,312,7.2,14.1,40,0.00,n/a,n/a,-99.99,Henriksen +1-Wire,2013-01-27 15:02:00,
2013-01-27 10:08:00,20.0,-0.5,30.33,WNW,294,3.4,15.5,40,0.00,n/a,n/a,-99.99,Henriksen +1-Wire,2013-01-27 15:08:00,
2013-01-27 10:14:00,20.3,-1.1,30.33,WNW,294,5.9,15.5,38,0.00,n/a,n/a,-99.99,Henriksen +1-Wire,2013-01-27 15:14:00,
2013-01-27 10:20:00,21.6,-0.1,30.33,WNW,291,3.3,13.4,38,0.00,n/a,n/a,-99.99,Henriksen +1-Wire,2013-01-27 15:20:00,
2013-01-27 10:26:00,21.7,-0.1,30.33,WNW,295,4.1,13.4,38,0.00,n/a,n/a,-99.99,Henriksen +1-Wire,2013-01-27 15:26:00,
2013-01-27 10:32:00,21.8,-0.2,30.33,WNW,283,4.3,10.2,37,0.00,n/a,n/a,-99.99,Henriksen +1-Wire,2013-01-27 15:32:00,
2013-01-27 10:38:00,22.1,-0.1,30.33,WNW,291,4.4,10.0,37,0.00,n/a,n/a,-99.99,Henriksen +1-Wire,2013-01-27 15:38:00,
2013-01-27 10:44:00,22.9,0.0,30.33,West,268,4.4,12.5,36,0.00,n/a,n/a,-99.99,Henriksen +1-Wire,2013-01-27 15:44:00,
2013-01-27 10:50:00,23.1,-0.2,30.33,WNW,290,6.3,14.4,35,0.00,n/a,n/a,-99.99,Henriksen +1-Wire,2013-01-27 15:50:00,
2013-01-27 10:56:00,24.2,0.7,30.33,West,264,4.4,14.4,35,0.00,n/a,n/a,-99.99,Henriksen +1-Wire,2013-01-27 15:56:00,
2013-01-27 11:02:00,23.6,-0.2,30.33,WNW,286,4.3,12.4,35,0.00,n/a,n/a,-99.99,Henriksen +1-Wire,2013-01-27 16:02:00,
2013-01-27 11:08:00,23.8,-0.3,30.33,WNW,289,5.3,12.4,34,0.00,n/a,n/a,-99.99,Henriksen +1-Wire,2013-01-27 16:08:00,
2013-01-27 11:14:00,23.2,-1.3,30.33,WNW,287,6.1,12.1,33,0.00,n/a,n/a,-99.99,Henriksen +1-Wire,2013-01-27 16:14:00,
2013-01-27 11:20:00,23.9,-1.1,30.33,WNW,293,3.4,10.1,33,0.00,n/a,n/a,-99.99,Henriksen +1-Wire,2013-01-27 16:20:00,
2013-01-27 11:26:00,24.0,-1.2,30.33,WNW,296,5.9,10.2,33,0.00,n/a,n/a,-99.99,Henriksen +1-Wire,2013-01-27 16:26:00,
2013-01-27 11:32:00,25.0,-0.1,30.33,NW,306,4.4,10.2,33,0.00,n/a,n/a,-99.99,Henriksen +1-Wire,2013-01-27 16:32:00,
2013-01-27 11:38:00,25.2,0.1,30.33,WNW,293,4.3,11.4,33,0.00,n/a,n/a,-99.99,Henriksen +1-Wire,2013-01-27 16:38:00,
2013-01-27 11:44:00,25.2,-0.1,30.33,WNW,295,5.8,12.2,33,0.00,n/a,n/a,-99.99,Henriksen +1-Wire,2013-01-27 16:44:00,
2013-01-27 11:50:00,25.3,-0.4,30.32,WNW,293,4.7,12.5,32,0.00,n/a,n/a,-99.99,Henriksen +1-Wire,2013-01-27 16:50:00,
2013-01-27 11:56:00,25.3,-0.2,30.32,WNW,302,4.2,16.4,32,0.00,n/a,n/a,-99.99,Henriksen +1-Wire,2013-01-27 16:56:00,
2013-01-27 12:02:00,25.9,0.1,30.32,WNW,299,6.9,12.5,32,0.00,n/a,n/a,-99.99,Henriksen +1-Wire,2013-01-27 17:02:00,
2013-01-27 12:08:00,25.7,-0.4,30.31,WNW,296,5.0,13.8,31,0.00,n/a,n/a,-99.99,Henriksen +1-Wire,2013-01-27 17:08:00,
2013-01-27 12:14:00,25.3,-0.8,30.31,WNW,292,5.5,13.8,31,0.00,n/a,n/a,-99.99,Henriksen +1-Wire,2013-01-27 17:14:00,
2013-01-27 12:20:00,26.3,-0.2,30.31,WNW,292,7.3,13.8,31,0.00,n/a,n/a,-99.99,Henriksen +1-Wire,2013-01-27 17:20:00,
2013-01-27 12:26:00,26.1,-0.5,30.32,WNW,291,6.7,15.0,31,0.00,n/a,n/a,-99.99,Henriksen +1-Wire,2013-01-27 17:26:00,
2013-01-27 12:32:00,27.0,0.3,30.32,WNW,290,5.6,15.0,31,0.00,n/a,n/a,-99.99,Henriksen +1-Wire,2013-01-27 17:32:00,
2013-01-27 12:38:00,27.3,0.5,30.31,WNW,297,7.8,14.6,31,0.00,n/a,n/a,-99.99,Henriksen +1-Wire,2013-01-27 17:38:00,
2013-01-27 12:44:00,27.2,0.3,30.31,NW,305,5.3,14.6,31,0.00,n/a,n/a,-99.99,Henriksen +1-Wire,2013-01-27 17:44:00,
2013-01-27 12:50:00,27.3,0.3,30.31,WNW,296,3.0,11.4,30,0.00,n/a,n/a,-99.99,Henriksen +1-Wire,2013-01-27 17:50:00,
2013-01-27 12:56:00,27.9,0.9,30.31,WNW,293,5.3,11.0,31,0.00,n/a,n/a,-99.99,Henriksen +1-Wire,2013-01-27 17:56:00,
2013-01-27 13:02:00,27.6,0.4,30.31,WNW,297,4.6,9.7,30,0.00,n/a,n/a,-99.99,Henriksen +1-Wire,2013-01-27 18:02:00,
2013-01-27 13:08:00,27.7,0.1,30.31,WNW,296,6.7,11.5,30,0.00,n/a,n/a,-99.99,Henriksen +1-Wire,2013-01-27 18:08:00,
2013-01-27 13:14:00,28.6,0.6,30.31,WNW,295,5.5,10.5,29,0.00,n/a,n/a,-99.99,Henriksen +1-Wire,2013-01-27 18:14:00,
2013-01-27 13:20:00,28.9,0.4,30.31,WNW,300,5.4,10.5,29,0.00,n/a,n/a,-99.99,Henriksen +1-Wire,2013-01-27 18:20:00,
2013-01-27 13:26:00,28.5,-0.6,30.31,NW,309,7.3,12.6,28,0.00,n/a,n/a,-99.99,Henriksen +1-Wire,2013-01-27 18:26:00,
2013-01-27 13:32:00,28.8,-0.2,30.31,WNW,298,3.7,12.6,28,0.00,n/a,n/a,-99.99,Henriksen +1-Wire,2013-01-27 18:32:00,
2013-01-27 13:38:00,28.9,-0.4,30.31,WNW,297,2.5,9.4,28,0.00,n/a,n/a,-99.99,Henriksen +1-Wire,2013-01-27 18:38:00,
2013-01-27 13:44:00,29.7,0.2,30.31,WSW,240,3.7,7.4,27,0.00,n/a,n/a,-99.99,Henriksen +1-Wire,2013-01-27 18:44:00,
2013-01-27 13:50:00,30.6,0.8,30.31,WSW,247,4.9,11.3,27,0.00,n/a,n/a,-99.99,Henriksen +1-Wire,2013-01-27 18:50:00,
2013-01-27 13:56:00,29.5,-0.5,30.31,WSW,257,5.3,11.3,27,0.00,n/a,n/a,-99.99,Henriksen +1-Wire,2013-01-27 18:56:00,
2013-01-27 14:02:00,30.0,0.0,30.31,WSW,249,4.3,10.5,27,0.00,n/a,n/a,-99.99,Henriksen +1-Wire,2013-01-27 19:02:00,
2013-01-27 14:08:00,30.0,-0.5,30.31,WNW,290,4.7,9.3,26,0.00,n/a,n/a,-99.99,Henriksen +1-Wire,2013-01-27 19:08:00,
2013-01-27 14:14:00,29.9,-1.1,30.31,WSW,245,4.2,14.3,26,0.00,n/a,n/a,-99.99,Henriksen +1-Wire,2013-01-27 19:14:00,
2013-01-27 14:20:00,28.8,-2.2,30.31,WNW,290,4.3,15.7,25,0.00,n/a,n/a,-99.99,Henriksen +1-Wire,2013-01-27 19:20:00,
2013-01-27 14:26:00,30.6,-1.0,30.31,WSW,240,3.3,12.4,25,0.00,n/a,n/a,-99.99,Henriksen +1-Wire,2013-01-27 19:26:00,
2013-01-27 14:32:00,30.7,-1.4,30.31,WSW,249,4.8,12.4,24,0.00,n/a,n/a,-99.99,Henriksen +1-Wire,2013-01-27 19:32:00,
2013-01-27 14:38:00,29.5,-2.2,30.31,WNW,293,6.3,9.7,25,0.00,n/a,n/a,-99.99,Henriksen +1-Wire,2013-01-27 19:38:00,
2013-01-27 14:44:00,29.6,-1.9,30.31,WNW,292,6.1,12.6,25,0.00,n/a,n/a,-99.99,Henriksen +1-Wire,2013-01-27 19:44:00,
2013-01-27 14:50:00,30.1,-1.4,30.31,WNW,290,3.0,10.9,25,0.00,n/a,n/a,-99.99,Henriksen +1-Wire,2013-01-27 19:50:00,
2013-01-27 14:56:00,30.3,-1.0,30.31,WNW,293,3.6,12.8,25,0.00,n/a,n/a,-99.99,Henriksen +1-Wire,2013-01-27 19:56:00,
2013-01-27 15:02:00,30.7,-0.7,30.31,WNW,295,3.3,12.1,25,0.00,n/a,n/a,-99.99,Henriksen +1-Wire,2013-01-27 20:02:00,
2013-01-27 15:08:00,30.7,-0.4,30.31,WNW,294,4.6,12.6,26,0.00,n/a,n/a,-99.99,Henriksen +1-Wire,2013-01-27 20:08:00,
2013-01-27 15:14:00,30.8,-0.3,30.31,WSW,258,2.8,12.6,26,0.00,n/a,n/a,-99.99,Henriksen +1-Wire,2013-01-27 20:14:00,
2013-01-27 15:20:00,30.9,0.4,30.31,WNW,289,3.6,8.7,26,0.00,n/a,n/a,-99.99,Henriksen +1-Wire,2013-01-27 20:20:00,
2013-01-27 15:26:00,30.9,0.0,30.31,WNW,294,6.0,11.7,26,0.00,n/a,n/a,-99.99,Henriksen +1-Wire,2013-01-27 20:26:00,
2013-01-27 15:32:00,30.8,-0.1,30.31,WNW,293,3.9,14.1,26,0.00,n/a,n/a,-99.99,Henriksen +1-Wire,2013-01-27 20:32:00,
2013-01-27 15:38:00,30.5,-0.3,30.31,WSW,257,3.2,12.8,26,0.00,n/a,n/a,-99.99,Henriksen +1-Wire,2013-01-27 20:38:00,
2013-01-27 15:44:00,29.3,-1.4,30.31,WNW,298,6.3,13.2,26,0.00,n/a,n/a,-99.99,Henriksen +1-Wire,2013-01-27 20:44:00,
2013-01-27 15:50:00,30.2,-0.6,30.31,WNW,292,3.2,13.2,26,0.00,n/a,n/a,-99.99,Henriksen +1-Wire,2013-01-27 20:50:00,
2013-01-27 15:56:00,29.4,-1.3,30.31,WNW,293,4.8,7.7,26,0.00,n/a,n/a,-99.99,Henriksen +1-Wire,2013-01-27 20:56:00,
2013-01-27 16:02:00,29.2,-1.1,30.31,West,264,4.2,13.5,26,0.00,n/a,n/a,-99.99,Henriksen +1-Wire,2013-01-27 21:02:00,
2013-01-27 16:08:00,29.3,-1.0,30.31,West,264,3.8,13.5,26,0.00,n/a,n/a,-99.99,Henriksen +1-Wire,2013-01-27 21:08:00,
2013-01-27 16:14:00,29.1,-1.3,30.31,WSW,241,4.6,11.0,26,0.00,n/a,n/a,-99.99,Henriksen +1-Wire,2013-01-27 21:14:00,
2013-01-27 16:20:00,28.5,-2.3,30.31,WNW,297,4.6,11.0,26,0.00,n/a,n/a,-99.99,Henriksen +1-Wire,2013-01-27 21:20:00,
2013-01-27 16:26:00,28.5,-2.7,30.32,West,274,3.5,9.9,25,0.00,n/a,n/a,-99.99,Henriksen +1-Wire,2013-01-27 21:26:00,
2013-01-27 16:32:00,29.1,-1.7,30.33,WSW,257,2.0,7.8,26,0.00,n/a,n/a,-99.99,Henriksen +1-Wire,2013-01-27 21:32:00,
2013-01-27 16:38:00,29.3,-1.6,30.33,WNW,287,3.8,10.4,26,0.00,n/a,n/a,-99.99,Henriksen +1-Wire,2013-01-27 21:38:00,
2013-01-27 16:44:00,29.3,-1.4,30.33,WNW,295,2.3,10.4,26,0.00,n/a,n/a,-99.99,Henriksen +1-Wire,2013-01-27 21:44:00,
2013-01-27 16:50:00,28.3,-1.3,30.33,WNW,293,2.5,8.3,27,0.00,n/a,n/a,-99.99,Henriksen +1-Wire,2013-01-27 21:50:00,
2013-01-27 16:56:00,28.1,-1.6,30.33,West,278,1.7,8.3,27,0.00,n/a,n/a,-99.99,Henriksen +1-Wire,2013-01-27 21:56:00,
2013-01-27 17:02:00,27.0,-2.0,30.34,SSW,204,2.7,4.5,28,0.00,n/a,n/a,-99.99,Henriksen +1-Wire,2013-01-27 22:02:00,
2013-01-27 17:08:00,26.7,-1.9,30.34,SW,230,2.4,4.7,28,0.00,n/a,n/a,-99.99,Henriksen +1-Wire,2013-01-27 22:08:00,
2013-01-27 17:14:00,26.8,-0.9,30.34,WSW,242,1.2,4.2,29,0.00,n/a,n/a,-99.99,Henriksen +1-Wire,2013-01-27 22:14:00,
2013-01-27 17:20:00,26.9,-1.1,30.35,WSW,249,2.3,4.8,29,0.00,n/a,n/a,-99.99,Henriksen +1-Wire,2013-01-27 22:20:00,
2013-01-27 17:26:00,26.7,-1.2,30.35,West,261,2.7,7.8,29,0.00,n/a,n/a,-99.99,Henriksen +1-Wire,2013-01-27 22:26:00,
2013-01-27 17:32:00,26.5,-1.9,30.35,WNW,296,2.9,7.8,28,0.00,n/a,n/a,-99.99,Henriksen +1-Wire,2013-01-27 22:32:00,
2013-01-27 17:38:00,27.3,-0.3,30.35,WNW,289,1.8,6.5,30,0.00,n/a,n/a,-99.99,Henriksen +1-Wire,2013-01-27 22:38:00,
2013-01-27 17:44:00,27.5,-1.0,30.35,SSW,207,1.7,3.5,28,0.00,n/a,n/a,-99.99,Henriksen +1-Wire,2013-01-27 22:44:00,
2013-01-27 17:50:00,27.2,-0.6,30.35,SSW,204,3.5,9.3,29,0.00,n/a,n/a,-99.99,Henriksen +1-Wire,2013-01-27 22:50:00,
2013-01-27 17:56:00,27.4,0.1,30.37,WSW,244,3.1,9.3,30,0.00,n/a,n/a,-99.99,Henriksen +1-Wire,2013-01-27 22:56:00,
2013-01-27 18:02:00,27.4,-0.5,30.37,WSW,244,2.4,6.4,29,0.00,n/a,n/a,-99.99,Henriksen +1-Wire,2013-01-27 23:02:00,
2013-01-27 18:08:00,27.2,-1.0,30.37,WSW,247,1.7,6.4,29,0.00,n/a,n/a,-99.99,Henriksen +1-Wire,2013-01-27 23:08:00,
2013-01-27 18:14:00,27.0,-1.1,30.37,WSW,246,2.0,5.4,29,0.00,n/a,n/a,-99.99,Henriksen +1-Wire,2013-01-27 23:14:00,
2013-01-27 18:20:00,27.2,-1.3,30.37,WSW,248,2.0,5.4,28,0.00,n/a,n/a,-99.99,Henriksen +1-Wire,2013-01-27 23:20:00,
2013-01-27 18:26:00,25.6,-2.4,30.37,SSW,209,2.1,5.8,29,0.00,n/a,n/a,-99.99,Henriksen +1-Wire,2013-01-27 23:26:00,
2013-01-27 18:32:00,25.0,-2.4,30.37,SSW,198,3.6,6.6,29,0.00,n/a,n/a,-99.99,Henriksen +1-Wire,2013-01-27 23:32:00,
2013-01-27 18:38:00,25.1,-2.2,30.37,WSW,244,1.9,7.4,30,0.00,n/a,n/a,-99.99,Henriksen +1-Wire,2013-01-27 23:38:00,
2013-01-27 18:44:00,24.8,-2.9,30.37,WSW,246,2.4,7.4,29,0.00,n/a,n/a,-99.99,Henriksen +1-Wire,2013-01-27 23:44:00,
2013-01-27 18:50:00,24.9,-3.0,30.38,WSW,243,2.6,7.1,29,0.00,n/a,n/a,-99.99,Henriksen +1-Wire,2013-01-27 23:50:00,
2013-01-27 18:56:00,24.9,-2.9,30.38,WSW,255,2.6,7.4,29,0.00,n/a,n/a,-99.99,Henriksen +1-Wire,2013-01-27 23:56:00,
2013-01-27 19:02:00,25.3,-2.6,30.38,WSW,237,1.9,7.4,29,0.00,n/a,n/a,-99.99,Henriksen +1-Wire,2013-01-28 00:02:00,
2013-01-27 19:08:00,25.6,-2.1,30.38,SSW,207,1.6,7.5,29,0.00,n/a,n/a,-99.99,Henriksen +1-Wire,2013-01-28 00:08:00,
2013-01-27 19:14:00,25.5,-2.0,30.38,SSW,207,3.0,5.8,29,0.00,n/a,n/a,-99.99,Henriksen +1-Wire,2013-01-28 00:14:00,
2013-01-27 19:20:00,25.7,-2.5,30.38,WNW,294,2.1,8.3,29,0.00,n/a,n/a,-99.99,Henriksen +1-Wire,2013-01-28 00:20:00,
2013-01-27 19:26:00,25.5,-2.6,30.39,West,259,3.7,7.7,29,0.00,n/a,n/a,-99.99,Henriksen +1-Wire,2013-01-28 00:26:00,
2013-01-27 19:32:00,25.6,-3.0,30.39,NW,314,1.8,6.5,28,0.00,n/a,n/a,-99.99,Henriksen +1-Wire,2013-01-28 00:32:00,
2013-01-27 19:38:00,25.5,-3.0,30.38,NW,313,2.6,6.5,28,0.00,n/a,n/a,-99.99,Henriksen +1-Wire,2013-01-28 00:38:00,
2013-01-27 19:44:00,24.6,-3.3,30.38,WNW,286,3.8,6.9,29,0.00,n/a,n/a,-99.99,Henriksen +1-Wire,2013-01-28 00:44:00,
2013-01-27 19:50:00,23.4,-3.6,30.38,WSW,254,2.7,6.9,30,0.00,n/a,n/a,-99.99,Henriksen +1-Wire,2013-01-28 00:50:00,
2013-01-27 19:56:00,23.1,-4.2,30.38,NW,312,2.4,6.6,29,0.00,n/a,n/a,-99.99,Henriksen +1-Wire,2013-01-28 00:56:00,
2013-01-27 20:02:00,23.0,-3.9,30.38,WSW,258,1.5,5.3,30,0.00,n/a,n/a,-99.99,Henriksen +1-Wire,2013-01-28 01:02:00,
2013-01-27 20:08:00,23.6,-3.1,30.38,WSW,247,2.4,5.1,30,0.00,n/a,n/a,-99.99,Henriksen +1-Wire,2013-01-28 01:08:00,
2013-01-27 20:14:00,23.7,-2.0,30.38,SSW,202,2.3,6.7,32,0.00,n/a,n/a,-99.99,Henriksen +1-Wire,2013-01-28 01:14:00,
2013-01-27 20:20:00,23.8,-2.1,30.38,WSW,237,1.9,6.7,32,0.00,n/a,n/a,-99.99,Henriksen +1-Wire,2013-01-28 01:20:00,
2013-01-27 20:26:00,23.0,-2.6,30.38,SSW,212,2.1,5.9,32,0.00,n/a,n/a,-99.99,Henriksen +1-Wire,2013-01-28 01:26:00,
2013-01-27 20:32:00,22.9,-2.0,30.38,SSW,213,2.7,9.5,33,0.00,n/a,n/a,-99.99,Henriksen +1-Wire,2013-01-28 01:32:00,
2013-01-27 20:38:00,23.1,-2.1,30.38,WSW,243,2.6,9.5,32,0.00,n/a,n/a,-99.99,Henriksen +1-Wire,2013-01-28 01:38:00,
2013-01-27 20:44:00,23.6,-2.2,30.37,WSW,239,2.3,8.6,32,0.00,n/a,n/a,-99.99,Henriksen +1-Wire,2013-01-28 01:44:00,
2013-01-27 20:50:00,23.7,-1.8,30.37,WSW,248,1.5,8.6,32,0.00,n/a,n/a,-99.99,Henriksen +1-Wire,2013-01-28 01:50:00,
2013-01-27 20:56:00,23.6,-1.4,30.38,WNW,298,1.8,6.2,33,0.00,n/a,n/a,-99.99,Henriksen +1-Wire,2013-01-28 01:56:00,
2013-01-27 21:02:00,23.4,-1.0,30.37,SSE,151,1.0,6.2,34,0.00,n/a,n/a,-99.99,Henriksen +1-Wire,2013-01-28 02:02:00,
2013-01-27 21:08:00,23.0,-1.7,30.37,NW,317,1.5,5.5,33,0.00,n/a,n/a,-99.99,Henriksen +1-Wire,2013-01-28 02:08:00,
2013-01-27 21:14:00,22.1,-2.6,30.37,NW,319,1.1,5.2,33,0.00,n/a,n/a,-99.99,Henriksen +1-Wire,2013-01-28 02:14:00,
2013-01-27 21:20:00,21.4,-2.7,30.38,WNW,298,1.2,5.2,34,0.00,n/a,n/a,-99.99,Henriksen +1-Wire,2013-01-28 02:20:00,
2013-01-27 21:26:00,21.1,-2.9,30.37,WNW,303,0.4,3.6,34,0.00,n/a,n/a,-99.99,Henriksen +1-Wire,2013-01-28 02:26:00,
2013-01-27 21:32:00,21.9,-1.5,30.37,NNW,338,1.0,3.2,35,0.00,n/a,n/a,-99.99,Henriksen +1-Wire,2013-01-28 02:32:00,
2013-01-27 21:38:00,22.2,-1.2,30.37,NW,317,1.1,4.5,35,0.00,n/a,n/a,-99.99,Henriksen +1-Wire,2013-01-28 02:38:00,
2013-01-27 21:44:00,22.1,-1.0,30.38,WSW,254,0.5,3.2,36,0.00,n/a,n/a,-99.99,Henriksen +1-Wire,2013-01-28 02:44:00,
2013-01-27 21:50:00,20.8,-1.2,30.38,SW,227,1.7,3.2,37,0.00,n/a,n/a,-99.99,Henriksen +1-Wire,2013-01-28 02:50:00,
2013-01-27 21:56:00,20.1,-1.4,30.39,SSE,161,0.6,2.4,38,0.00,n/a,n/a,-99.99,Henriksen +1-Wire,2013-01-28 02:56:00,
2013-01-27 22:02:00,19.7,-1.9,30.38,West,268,0.1,2.0,38,0.00,n/a,n/a,-99.99,Henriksen +1-Wire,2013-01-28 03:02:00,
2013-01-27 22:08:00,19.5,-1.9,30.38,WNW,287,0.1,1.9,38,0.00,n/a,n/a,-99.99,Henriksen +1-Wire,2013-01-28 03:08:00,
2013-01-27 22:14:00,19.3,-1.2,30.38,West,274,0.0,1.0,40,0.00,n/a,n/a,-99.99,Henriksen +1-Wire,2013-01-28 03:14:00,
2013-01-27 22:20:00,19.1,-0.7,30.39,WNW,285,0.0,0.0,41,0.00,n/a,n/a,-99.99,Henriksen +1-Wire,2013-01-28 03:20:00,
2013-01-27 22:26:00,17.9,-1.2,30.38,WNW,297,0.0,0.0,42,0.00,n/a,n/a,-99.99,Henriksen +1-Wire,2013-01-28 03:26:00,
2013-01-27 22:32:00,17.7,-1.0,30.39,SW,229,0.3,1.3,43,0.00,n/a,n/a,-99.99,Henriksen +1-Wire,2013-01-28 03:32:00,
2013-01-27 22:38:00,17.5,-0.6,30.39,WNW,298,1.0,1.5,44,0.00,n/a,n/a,-99.99,Henriksen +1-Wire,2013-01-28 03:38:00,
2013-01-27 22:44:00,18.0,0.8,30.40,WSW,256,0.7,1.6,46,0.00,n/a,n/a,-99.99,Henriksen +1-Wire,2013-01-28 03:44:00,
2013-01-27 22:50:00,17.7,-0.1,30.39,WSW,250,1.0,1.9,45,0.00,n/a,n/a,-99.99,Henriksen +1-Wire,2013-01-28 03:50:00,
2013-01-27 22:56:00,18.0,-0.9,30.40,WSW,252,0.5,3.2,43,0.00,n/a,n/a,-99.99,Henriksen +1-Wire,2013-01-28 03:56:00,
2013-01-27 23:02:00,17.8,-0.8,30.40,WSW,239,1.0,3.9,43,0.00,n/a,n/a,-99.99,Henriksen +1-Wire,2013-01-28 04:02:00,
2013-01-27 23:08:00,19.3,-0.6,30.40,SW,235,0.8,3.9,41,0.00,n/a,n/a,-99.99,Henriksen +1-Wire,2013-01-28 04:08:00,
2013-01-27 23:14:00,19.5,-0.9,30.40,West,267,0.7,1.9,40,0.00,n/a,n/a,-99.99,Henriksen +1-Wire,2013-01-28 04:14:00,
2013-01-27 23:20:00,19.5,-0.4,30.40,WSW,246,0.3,2.6,41,0.00,n/a,n/a,-99.99,Henriksen +1-Wire,2013-01-28 04:20:00,
2013-01-27 23:26:00,19.2,-0.7,30.40,SSW,207,0.2,2.6,41,0.00,n/a,n/a,-99.99,Henriksen +1-Wire,2013-01-28 04:26:00,
2013-01-27 23:32:00,18.6,-1.3,30.40,NW,313,1.2,2.3,41,0.00,n/a,n/a,-99.99,Henriksen +1-Wire,2013-01-28 04:32:00,
2013-01-27 23:38:00,19.1,-0.9,30.40,NW,311,1.2,2.3,41,0.00,n/a,n/a,-99.99,Henriksen +1-Wire,2013-01-28 04:38:00,
2013-01-27 23:44:00,19.8,-0.3,30.39,NW,306,0.9,2.3,40,0.00,n/a,n/a,-99.99,Henriksen +1-Wire,2013-01-28 04:44:00,
2013-01-27 23:50:00,18.5,-1.0,30.39,WNW,299,0.5,1.9,42,0.00,n/a,n/a,-99.99,Henriksen +1-Wire,2013-01-28 04:50:00,
2013-01-27 23:56:00,18.6,-0.9,30.39,SE,134,0.7,1.9,42,0.00,n/a,n/a,-99.99,Henriksen +1-Wire,2013-01-28 04:56:00,